sensor_id;sensor_type;location;lat;lon;timestamp;pressure;altitude;pressure_sealevel;temperature;humidity
76434;BME280;65265;53.200;6.080;2023-02-01T00:04:39;101625.72;;;5.88;77.43
76434;BME280;65265;53.200;6.080;2023-02-01T00:09:31;101622.66;;;5.80;78.03
76434;BME280;65265;53.200;6.080;2023-02-01T00:14:22;101609.19;;;5.81;77.70
76434;BME280;65265;53.200;6.080;2023-02-01T00:19:16;101583.91;;;5.71;77.17
76434;BME280;65265;53.200;6.080;2023-02-01T00:24:09;101592.06;;;5.90;76.66
76434;BME280;65265;53.200;6.080;2023-02-01T00:29:03;101611.84;;;5.94;76.82
76434;BME280;65265;53.200;6.080;2023-02-01T00:33:56;101604.84;;;6.03;76.16
76434;BME280;65265;53.200;6.080;2023-02-01T00:38:49;101602.44;;;5.93;76.62
76434;BME280;65265;53.200;6.080;2023-02-01T00:43:42;101586.00;;;5.88;76.83
76434;BME280;65265;53.200;6.080;2023-02-01T00:48:35;101588.50;;;6.00;77.05
76434;BME280;65265;53.200;6.080;2023-02-01T00:53:27;101612.38;;;6.02;77.44
76434;BME280;65265;53.200;6.080;2023-02-01T00:58:20;101585.34;;;5.91;77.57
76434;BME280;65265;53.200;6.080;2023-02-01T01:03:14;101572.44;;;5.88;77.74
76434;BME280;65265;53.200;6.080;2023-02-01T01:08:11;101587.19;;;6.05;77.17
76434;BME280;65265;53.200;6.080;2023-02-01T01:13:04;101580.44;;;6.05;77.24
76434;BME280;65265;53.200;6.080;2023-02-01T01:17:58;101573.81;;;6.07;76.89
76434;BME280;65265;53.200;6.080;2023-02-01T01:22:50;101577.66;;;6.14;76.99
76434;BME280;65265;53.200;6.080;2023-02-01T01:27:42;101560.53;;;6.11;76.58
76434;BME280;65265;53.200;6.080;2023-02-01T01:32:33;101562.19;;;6.11;78.97
76434;BME280;65265;53.200;6.080;2023-02-01T01:37:27;101557.94;;;5.98;79.79
76434;BME280;65265;53.200;6.080;2023-02-01T01:42:18;101532.41;;;5.72;80.86
76434;BME280;65265;53.200;6.080;2023-02-01T01:47:10;101543.44;;;5.84;81.75
76434;BME280;65265;53.200;6.080;2023-02-01T01:52:03;101527.69;;;5.65;81.75
76434;BME280;65265;53.200;6.080;2023-02-01T01:56:58;101514.53;;;5.59;82.19
76434;BME280;65265;53.200;6.080;2023-02-01T02:01:53;101523.78;;;5.70;83.71
76434;BME280;65265;53.200;6.080;2023-02-01T02:06:49;101493.78;;;5.40;84.04
76434;BME280;65265;53.200;6.080;2023-02-01T02:11:42;101484.41;;;5.39;83.00
76434;BME280;65265;53.200;6.080;2023-02-01T02:22:05;101499.00;;;5.66;82.23
76434;BME280;65265;53.200;6.080;2023-02-01T02:27:10;101463.59;;;5.56;82.13
76434;BME280;65265;53.200;6.080;2023-02-01T02:32:28;101482.72;;;5.76;82.05
76434;BME280;65265;53.200;6.080;2023-02-01T02:37:32;101469.94;;;5.74;81.64
76434;BME280;65265;53.200;6.080;2023-02-01T02:42:32;101460.59;;;5.73;81.76
76434;BME280;65265;53.200;6.080;2023-02-01T02:47:50;101467.97;;;5.70;81.75
76434;BME280;65265;53.200;6.080;2023-02-01T02:52:47;101471.50;;;5.72;81.42
76434;BME280;65265;53.200;6.080;2023-02-01T02:58:02;101463.13;;;5.73;81.38
76434;BME280;65265;53.200;6.080;2023-02-01T03:03:12;101466.53;;;5.74;81.47
76434;BME280;65265;53.200;6.080;2023-02-01T03:08:23;101473.59;;;5.78;80.90
76434;BME280;65265;53.200;6.080;2023-02-01T03:13:23;101449.22;;;5.68;80.93
76434;BME280;65265;53.200;6.080;2023-02-01T03:18:21;101424.63;;;5.67;81.39
76434;BME280;65265;53.200;6.080;2023-02-01T03:23:19;101406.25;;;5.58;80.97
76434;BME280;65265;53.200;6.080;2023-02-01T03:28:17;101429.34;;;5.74;80.67
76434;BME280;65265;53.200;6.080;2023-02-01T03:33:14;101408.06;;;5.72;80.25
76434;BME280;65265;53.200;6.080;2023-02-01T03:38:15;101422.97;;;5.92;80.19
76434;BME280;65265;53.200;6.080;2023-02-01T03:43:16;101428.66;;;5.88;81.23
76434;BME280;65265;53.200;6.080;2023-02-01T03:48:10;101449.25;;;5.93;81.87
76434;BME280;65265;53.200;6.080;2023-02-01T03:53:07;101413.09;;;5.84;81.49
76434;BME280;65265;53.200;6.080;2023-02-01T03:58:04;101429.63;;;5.90;81.65
76434;BME280;65265;53.200;6.080;2023-02-01T04:02:59;101422.59;;;5.86;82.20
76434;BME280;65265;53.200;6.080;2023-02-01T04:07:51;101417.91;;;5.92;82.79
76434;BME280;65265;53.200;6.080;2023-02-01T04:12:44;101438.06;;;5.78;83.25
76434;BME280;65265;53.200;6.080;2023-02-01T04:17:36;101425.06;;;5.73;82.68
76434;BME280;65265;53.200;6.080;2023-02-01T04:22:29;101410.97;;;5.65;82.25
76434;BME280;65265;53.200;6.080;2023-02-01T04:27:21;101404.91;;;5.63;82.19
76434;BME280;65265;53.200;6.080;2023-02-01T04:32:12;101411.28;;;5.70;82.40
76434;BME280;65265;53.200;6.080;2023-02-01T04:37:05;101416.91;;;5.66;82.27
76434;BME280;65265;53.200;6.080;2023-02-01T04:42:00;101412.00;;;5.56;82.38
76434;BME280;65265;53.200;6.080;2023-02-01T04:46:52;101416.69;;;5.63;82.29
76434;BME280;65265;53.200;6.080;2023-02-01T04:51:43;101409.47;;;5.56;82.20
76434;BME280;65265;53.200;6.080;2023-02-01T04:56:35;101420.22;;;5.65;83.06
76434;BME280;65265;53.200;6.080;2023-02-01T05:01:28;101410.31;;;5.68;82.72
76434;BME280;65265;53.200;6.080;2023-02-01T05:06:20;101402.56;;;5.66;82.78
76434;BME280;65265;53.200;6.080;2023-02-01T05:11:12;101397.69;;;5.69;82.67
76434;BME280;65265;53.200;6.080;2023-02-01T05:16:17;101408.03;;;5.84;81.92
76434;BME280;65265;53.200;6.080;2023-02-01T05:21:10;101403.63;;;5.81;81.76
76434;BME280;65265;53.200;6.080;2023-02-01T05:26:02;101426.72;;;5.97;81.58
76434;BME280;65265;53.200;6.080;2023-02-01T05:30:53;101414.78;;;5.83;82.02
76434;BME280;65265;53.200;6.080;2023-02-01T05:35:45;101435.50;;;6.02;81.87
76434;BME280;65265;53.200;6.080;2023-02-01T05:40:39;101424.50;;;6.02;81.64
76434;BME280;65265;53.200;6.080;2023-02-01T05:45:30;101426.41;;;5.93;81.74
76434;BME280;65265;53.200;6.080;2023-02-01T05:50:22;101422.09;;;5.79;81.80
76434;BME280;65265;53.200;6.080;2023-02-01T05:55:13;101409.41;;;5.79;81.54
76434;BME280;65265;53.200;6.080;2023-02-01T06:00:09;101420.06;;;5.86;81.64
76434;BME280;65265;53.200;6.080;2023-02-01T06:05:02;101404.41;;;5.80;81.76
76434;BME280;65265;53.200;6.080;2023-02-01T06:09:54;101403.22;;;5.64;82.05
76434;BME280;65265;53.200;6.080;2023-02-01T06:14:45;101414.28;;;5.64;82.17
76434;BME280;65265;53.200;6.080;2023-02-01T06:19:39;101414.47;;;5.67;82.33
76434;BME280;65265;53.200;6.080;2023-02-01T06:24:31;101421.88;;;5.64;82.65
76434;BME280;65265;53.200;6.080;2023-02-01T06:29:23;101423.75;;;5.67;83.28
76434;BME280;65265;53.200;6.080;2023-02-01T06:34:14;101426.13;;;5.77;83.06
76434;BME280;65265;53.200;6.080;2023-02-01T06:39:08;101397.06;;;5.60;82.78
76434;BME280;65265;53.200;6.080;2023-02-01T06:43:59;101399.84;;;5.63;82.55
76434;BME280;65265;53.200;6.080;2023-02-01T06:48:51;101425.69;;;5.82;82.79
76434;BME280;65265;53.200;6.080;2023-02-01T06:53:44;101395.53;;;5.62;82.12
76434;BME280;65265;53.200;6.080;2023-02-01T06:58:38;101402.78;;;5.69;81.76
76434;BME280;65265;53.200;6.080;2023-02-01T07:03:30;101414.59;;;5.69;82.21
76434;BME280;65265;53.200;6.080;2023-02-01T07:08:21;101452.63;;;5.80;83.47
76434;BME280;65265;53.200;6.080;2023-02-01T07:13:13;101440.72;;;5.79;83.67
76434;BME280;65265;53.200;6.080;2023-02-01T07:18:07;101401.22;;;5.71;83.29
76434;BME280;65265;53.200;6.080;2023-02-01T07:22:58;101431.31;;;5.78;83.49
76434;BME280;65265;53.200;6.080;2023-02-01T07:27:50;101413.38;;;5.64;83.77
76434;BME280;65265;53.200;6.080;2023-02-01T07:32:42;101402.59;;;5.55;83.72
76434;BME280;65265;53.200;6.080;2023-02-01T07:37:36;101426.19;;;5.65;83.75
76434;BME280;65265;53.200;6.080;2023-02-01T07:42:27;101434.13;;;5.70;83.09
76434;BME280;65265;53.200;6.080;2023-02-01T07:47:19;101418.56;;;5.65;82.95
76434;BME280;65265;53.200;6.080;2023-02-01T07:52:11;101435.44;;;5.65;83.11
76434;BME280;65265;53.200;6.080;2023-02-01T07:57:04;101439.06;;;5.68;83.38
76434;BME280;65265;53.200;6.080;2023-02-01T08:01:58;101440.72;;;5.79;83.80
76434;BME280;65265;53.200;6.080;2023-02-01T08:06:50;101421.50;;;5.71;84.37
76434;BME280;65265;53.200;6.080;2023-02-01T08:11:42;101434.00;;;5.68;84.37
76434;BME280;65265;53.200;6.080;2023-02-01T08:16:35;101444.22;;;5.81;83.95
76434;BME280;65265;53.200;6.080;2023-02-01T08:21:29;101437.03;;;5.87;83.82
76434;BME280;65265;53.200;6.080;2023-02-01T08:26:26;101444.00;;;5.90;83.61
76434;BME280;65265;53.200;6.080;2023-02-01T08:31:20;101433.38;;;5.95;82.87
76434;BME280;65265;53.200;6.080;2023-02-01T08:36:15;101416.38;;;5.94;83.12
76434;BME280;65265;53.200;6.080;2023-02-01T08:41:09;101426.63;;;5.96;82.97
76434;BME280;65265;53.200;6.080;2023-02-01T08:46:01;101404.91;;;5.88;82.57
76434;BME280;65265;53.200;6.080;2023-02-01T08:50:53;101385.97;;;5.83;82.81
76434;BME280;65265;53.200;6.080;2023-02-01T08:55:46;101392.91;;;5.85;82.38
76434;BME280;65265;53.200;6.080;2023-02-01T09:00:39;101398.06;;;5.87;82.58
76434;BME280;65265;53.200;6.080;2023-02-01T09:05:43;101398.69;;;5.96;82.31
76434;BME280;65265;53.200;6.080;2023-02-01T09:10:37;101367.53;;;5.85;82.26
76434;BME280;65265;53.200;6.080;2023-02-01T09:15:30;101385.34;;;5.98;82.29
76434;BME280;65265;53.200;6.080;2023-02-01T09:20:22;101383.56;;;5.97;82.40
76434;BME280;65265;53.200;6.080;2023-02-01T09:25:15;101367.75;;;6.01;82.70
76434;BME280;65265;53.200;6.080;2023-02-01T09:30:08;101349.00;;;5.86;82.99
76434;BME280;65265;53.200;6.080;2023-02-01T09:35:03;101339.03;;;5.89;83.45
76434;BME280;65265;53.200;6.080;2023-02-01T09:39:58;101337.28;;;5.88;83.16
76434;BME280;65265;53.200;6.080;2023-02-01T09:45:02;101332.50;;;5.93;83.13
76434;BME280;65265;53.200;6.080;2023-02-01T09:50:00;101306.97;;;5.78;83.30
76434;BME280;65265;53.200;6.080;2023-02-01T09:55:01;101316.56;;;5.82;83.50
76434;BME280;65265;53.200;6.080;2023-02-01T09:59:59;101332.31;;;6.03;82.61
76434;BME280;65265;53.200;6.080;2023-02-01T10:04:55;101340.81;;;6.03;82.84
76434;BME280;65265;53.200;6.080;2023-02-01T10:10:09;101322.25;;;6.04;82.45
76434;BME280;65265;53.200;6.080;2023-02-01T10:15:19;101336.31;;;6.12;82.11
76434;BME280;65265;53.200;6.080;2023-02-01T10:20:16;101351.19;;;6.19;82.67
76434;BME280;65265;53.200;6.080;2023-02-01T10:25:20;101326.94;;;6.24;82.37
76434;BME280;65265;53.200;6.080;2023-02-01T10:30:19;101342.41;;;6.40;81.61
76434;BME280;65265;53.200;6.080;2023-02-01T10:35:16;101340.16;;;6.45;81.17
76434;BME280;65265;53.200;6.080;2023-02-01T10:40:19;101325.88;;;6.60;80.17
76434;BME280;65265;53.200;6.080;2023-02-01T10:45:15;101339.72;;;6.65;79.17
76434;BME280;65265;53.200;6.080;2023-02-01T10:50:16;101314.53;;;6.55;79.72
76434;BME280;65265;53.200;6.080;2023-02-01T10:55:36;101340.63;;;6.65;80.96
76434;BME280;65265;53.200;6.080;2023-02-01T11:00:36;101313.94;;;6.59;80.52
76434;BME280;65265;53.200;6.080;2023-02-01T11:05:43;101292.16;;;6.62;79.69
76434;BME280;65265;53.200;6.080;2023-02-01T11:10:39;101299.56;;;6.72;79.17
76434;BME280;65265;53.200;6.080;2023-02-01T11:15:33;101331.38;;;6.93;79.15
76434;BME280;65265;53.200;6.080;2023-02-01T11:20:34;101329.75;;;6.81;81.51
76434;BME280;65265;53.200;6.080;2023-02-01T11:25:30;101321.88;;;6.63;82.99
76434;BME280;65265;53.200;6.080;2023-02-01T11:30:34;101313.06;;;6.58;82.48
76434;BME280;65265;53.200;6.080;2023-02-01T11:35:29;101330.16;;;6.74;81.99
76434;BME280;65265;53.200;6.080;2023-02-01T11:40:27;101329.16;;;6.85;81.83
76434;BME280;65265;53.200;6.080;2023-02-01T11:45:24;101348.59;;;6.97;81.68
76434;BME280;65265;53.200;6.080;2023-02-01T11:50:22;101321.41;;;6.96;79.95
76434;BME280;65265;53.200;6.080;2023-02-01T11:55:31;101338.88;;;7.32;80.73
76434;BME280;65265;53.200;6.080;2023-02-01T12:00:37;101327.19;;;7.21;79.19
76434;BME280;65265;53.200;6.080;2023-02-01T12:05:43;101323.25;;;7.26;79.41
76434;BME280;65265;53.200;6.080;2023-02-01T12:10:48;101342.38;;;7.61;80.30
76434;BME280;65265;53.200;6.080;2023-02-01T12:15:55;101323.69;;;7.61;79.59
76434;BME280;65265;53.200;6.080;2023-02-01T12:21:17;101331.84;;;7.70;79.25
76434;BME280;65265;53.200;6.080;2023-02-01T12:26:40;101334.56;;;7.58;79.44
76434;BME280;65265;53.200;6.080;2023-02-01T12:31:49;101360.34;;;7.64;79.49
76434;BME280;65265;53.200;6.080;2023-02-01T12:36:49;101341.84;;;7.67;79.41
76434;BME280;65265;53.200;6.080;2023-02-01T12:41:54;101339.13;;;7.64;80.00
76434;BME280;65265;53.200;6.080;2023-02-01T12:46:50;101338.97;;;7.61;80.27
76434;BME280;65265;53.200;6.080;2023-02-01T12:51:50;101315.50;;;7.52;80.37
76434;BME280;65265;53.200;6.080;2023-02-01T12:56:46;101354.75;;;7.70;80.03
76434;BME280;65265;53.200;6.080;2023-02-01T13:01:44;101355.13;;;7.76;80.01
76434;BME280;65265;53.200;6.080;2023-02-01T13:06:41;101328.56;;;7.58;80.32
76434;BME280;65265;53.200;6.080;2023-02-01T13:11:38;101355.09;;;7.61;80.83
76434;BME280;65265;53.200;6.080;2023-02-01T13:16:32;101351.94;;;7.65;80.44
76434;BME280;65265;53.200;6.080;2023-02-01T13:21:31;101360.53;;;7.53;80.67
76434;BME280;65265;53.200;6.080;2023-02-01T13:26:23;101360.13;;;7.47;80.96
76434;BME280;65265;53.200;6.080;2023-02-01T13:31:29;101360.41;;;7.51;80.96
76434;BME280;65265;53.200;6.080;2023-02-01T13:36:48;101374.03;;;7.52;81.49
76434;BME280;65265;53.200;6.080;2023-02-01T13:41:50;101379.91;;;7.51;82.06
76434;BME280;65265;53.200;6.080;2023-02-01T13:46:46;101351.00;;;7.36;82.05
76434;BME280;65265;53.200;6.080;2023-02-01T13:51:42;101381.97;;;7.43;82.26
76434;BME280;65265;53.200;6.080;2023-02-01T13:56:41;101382.47;;;7.38;82.88
76434;BME280;65265;53.200;6.080;2023-02-01T14:01:34;101379.53;;;7.45;82.79
76434;BME280;65265;53.200;6.080;2023-02-01T14:06:38;101380.78;;;7.51;81.45
76434;BME280;65265;53.200;6.080;2023-02-01T14:11:38;101388.06;;;7.60;80.76
76434;BME280;65265;53.200;6.080;2023-02-01T14:16:30;101402.22;;;7.55;80.88
76434;BME280;65265;53.200;6.080;2023-02-01T14:21:25;101406.16;;;7.50;81.17
76434;BME280;65265;53.200;6.080;2023-02-01T14:26:42;101391.19;;;7.41;81.21
76434;BME280;65265;53.200;6.080;2023-02-01T14:31:42;101406.16;;;7.50;81.36
76434;BME280;65265;53.200;6.080;2023-02-01T14:36:45;101401.25;;;7.53;81.69
76434;BME280;65265;53.200;6.080;2023-02-01T14:41:41;101407.53;;;7.45;81.46
76434;BME280;65265;53.200;6.080;2023-02-01T14:52:13;101420.00;;;7.27;82.87
76434;BME280;65265;53.200;6.080;2023-02-01T14:57:20;101426.25;;;7.32;83.20
76434;BME280;65265;53.200;6.080;2023-02-01T15:02:23;101392.63;;;7.10;81.84
76434;BME280;65265;53.200;6.080;2023-02-01T15:07:17;101432.53;;;7.24;82.12
76434;BME280;65265;53.200;6.080;2023-02-01T15:12:16;101443.59;;;7.25;82.30
76434;BME280;65265;53.200;6.080;2023-02-01T15:17:22;101452.69;;;7.34;81.47
76434;BME280;65265;53.200;6.080;2023-02-01T15:22:18;101467.00;;;7.47;80.62
76434;BME280;65265;53.200;6.080;2023-02-01T15:27:13;101470.84;;;7.40;80.98
76434;BME280;65265;53.200;6.080;2023-02-01T15:32:15;101453.47;;;7.20;81.43
76434;BME280;65265;53.200;6.080;2023-02-01T15:37:22;101476.88;;;7.28;81.50
76434;BME280;65265;53.200;6.080;2023-02-01T15:42:17;101478.81;;;7.19;81.04
76434;BME280;65265;53.200;6.080;2023-02-01T15:47:16;101488.81;;;7.03;80.59
76434;BME280;65265;53.200;6.080;2023-02-01T15:52:20;101490.66;;;6.93;80.47
76434;BME280;65265;53.200;6.080;2023-02-01T15:57:19;101489.97;;;6.82;80.04
76434;BME280;65265;53.200;6.080;2023-02-01T16:02:26;101498.00;;;6.75;79.85
76434;BME280;65265;53.200;6.080;2023-02-01T16:07:26;101496.97;;;6.60;80.36
76434;BME280;65265;53.200;6.080;2023-02-01T16:12:26;101485.72;;;6.44;80.46
76434;BME280;65265;53.200;6.080;2023-02-01T16:17:19;101507.59;;;6.42;80.84
76434;BME280;65265;53.200;6.080;2023-02-01T16:22:12;101513.94;;;6.35;81.31
76434;BME280;65265;53.200;6.080;2023-02-01T16:27:04;101529.38;;;6.38;82.04
76434;BME280;65265;53.200;6.080;2023-02-01T16:31:57;101531.41;;;6.31;82.68
76434;BME280;65265;53.200;6.080;2023-02-01T16:36:49;101539.72;;;6.28;83.12
76434;BME280;65265;53.200;6.080;2023-02-01T16:41:43;101556.72;;;6.29;84.31
76434;BME280;65265;53.200;6.080;2023-02-01T16:46:40;101527.97;;;6.17;84.91
76434;BME280;65265;53.200;6.080;2023-02-01T16:51:33;101562.03;;;6.45;84.44
76434;BME280;65265;53.200;6.080;2023-02-01T16:56:30;101565.38;;;6.44;84.30
76434;BME280;65265;53.200;6.080;2023-02-01T17:01:24;101579.31;;;6.38;83.43
76434;BME280;65265;53.200;6.080;2023-02-01T17:06:18;101557.09;;;6.22;82.31
76434;BME280;65265;53.200;6.080;2023-02-01T17:11:11;101598.84;;;6.14;82.39
76434;BME280;65265;53.200;6.080;2023-02-01T17:16:05;101598.44;;;6.08;81.16
76434;BME280;65265;53.200;6.080;2023-02-01T17:21:03;101600.44;;;6.01;80.29
76434;BME280;65265;53.200;6.080;2023-02-01T17:25:57;101628.47;;;6.02;79.11
76434;BME280;65265;53.200;6.080;2023-02-01T17:30:50;101611.66;;;6.04;78.01
76434;BME280;65265;53.200;6.080;2023-02-01T17:35:43;101603.44;;;5.95;78.20
76434;BME280;65265;53.200;6.080;2023-02-01T17:40:39;101604.88;;;5.92;77.00
76434;BME280;65265;53.200;6.080;2023-02-01T17:45:34;101612.69;;;5.95;76.81
76434;BME280;65265;53.200;6.080;2023-02-01T17:50:29;101608.84;;;5.88;77.37
76434;BME280;65265;53.200;6.080;2023-02-01T17:55:24;101620.19;;;5.93;77.98
76434;BME280;65265;53.200;6.080;2023-02-01T18:00:20;101622.97;;;5.96;78.91
76434;BME280;65265;53.200;6.080;2023-02-01T18:05:17;101626.69;;;6.01;79.19
76434;BME280;65265;53.200;6.080;2023-02-01T18:10:10;101634.84;;;6.09;78.98
76434;BME280;65265;53.200;6.080;2023-02-01T18:15:12;101602.53;;;5.95;79.04
76434;BME280;65265;53.200;6.080;2023-02-01T18:20:12;101637.38;;;6.20;77.98
76434;BME280;65265;53.200;6.080;2023-02-01T18:25:13;101628.91;;;6.08;78.06
76434;BME280;65265;53.200;6.080;2023-02-01T18:30:06;101642.38;;;6.07;78.03
76434;BME280;65265;53.200;6.080;2023-02-01T18:34:58;101645.25;;;6.00;78.05
76434;BME280;65265;53.200;6.080;2023-02-01T18:39:51;101648.47;;;5.86;78.37
76434;BME280;65265;53.200;6.080;2023-02-01T18:44:47;101646.34;;;5.69;78.81
76434;BME280;65265;53.200;6.080;2023-02-01T18:49:38;101634.22;;;5.54;79.23
76434;BME280;65265;53.200;6.080;2023-02-01T18:54:30;101651.22;;;5.55;79.20
76434;BME280;65265;53.200;6.080;2023-02-01T18:59:23;101655.41;;;5.54;79.04
76434;BME280;65265;53.200;6.080;2023-02-01T19:04:15;101656.19;;;5.53;79.10
76434;BME280;65265;53.200;6.080;2023-02-01T19:09:07;101657.41;;;5.58;78.62
76434;BME280;65265;53.200;6.080;2023-02-01T19:14:00;101647.78;;;5.66;78.43
76434;BME280;65265;53.200;6.080;2023-02-01T19:18:55;101664.44;;;5.74;77.83
76434;BME280;65265;53.200;6.080;2023-02-01T19:23:47;101656.50;;;5.69;77.40
76434;BME280;65265;53.200;6.080;2023-02-01T19:28:39;101674.28;;;5.69;77.88
76434;BME280;65265;53.200;6.080;2023-02-01T19:33:34;101666.78;;;5.71;77.45
76434;BME280;65265;53.200;6.080;2023-02-01T19:38:27;101649.00;;;5.59;77.51
76434;BME280;65265;53.200;6.080;2023-02-01T19:43:19;101678.34;;;5.67;77.26
76434;BME280;65265;53.200;6.080;2023-02-01T19:48:11;101682.34;;;5.75;76.61
76434;BME280;65265;53.200;6.080;2023-02-01T19:53:05;101687.84;;;5.70;77.03
76434;BME280;65265;53.200;6.080;2023-02-01T19:58:00;101685.22;;;5.57;77.49
76434;BME280;65265;53.200;6.080;2023-02-01T20:02:56;101696.69;;;5.63;77.34
76434;BME280;65265;53.200;6.080;2023-02-01T20:07:49;101703.28;;;5.50;78.13
76434;BME280;65265;53.200;6.080;2023-02-01T20:12:40;101708.78;;;5.44;78.42
76434;BME280;65265;53.200;6.080;2023-02-01T20:17:40;101713.88;;;5.44;78.46
76434;BME280;65265;53.200;6.080;2023-02-01T20:22:33;101712.09;;;5.43;77.95
76434;BME280;65265;53.200;6.080;2023-02-01T20:27:25;101719.72;;;5.43;77.58
76434;BME280;65265;53.200;6.080;2023-02-01T20:32:16;101723.13;;;5.44;77.72
76434;BME280;65265;53.200;6.080;2023-02-01T20:37:20;101721.25;;;5.41;77.67
76434;BME280;65265;53.200;6.080;2023-02-01T20:42:11;101712.75;;;5.41;78.16
76434;BME280;65265;53.200;6.080;2023-02-01T20:47:03;101714.50;;;5.30;77.75
76434;BME280;65265;53.200;6.080;2023-02-01T20:51:55;101734.69;;;5.29;77.39
76434;BME280;65265;53.200;6.080;2023-02-01T20:56:51;101731.69;;;5.23;77.43
76434;BME280;65265;53.200;6.080;2023-02-01T21:01:43;101738.06;;;5.18;77.10
76434;BME280;65265;53.200;6.080;2023-02-01T21:06:41;101721.25;;;4.97;77.37
76434;BME280;65265;53.200;6.080;2023-02-01T21:11:35;101735.94;;;5.12;77.12
76434;BME280;65265;53.200;6.080;2023-02-01T21:16:33;101739.06;;;5.20;76.37
76434;BME280;65265;53.200;6.080;2023-02-01T21:21:26;101740.03;;;5.10;77.47
76434;BME280;65265;53.200;6.080;2023-02-01T21:26:22;101717.72;;;4.95;77.62
76434;BME280;65265;53.200;6.080;2023-02-01T21:31:14;101739.25;;;5.00;77.76
76434;BME280;65265;53.200;6.080;2023-02-01T21:36:08;101745.19;;;5.00;78.09
76434;BME280;65265;53.200;6.080;2023-02-01T21:41:08;101755.78;;;5.06;77.69
76434;BME280;65265;53.200;6.080;2023-02-01T21:46:17;101752.13;;;5.03;77.82
76434;BME280;65265;53.200;6.080;2023-02-01T21:51:10;101750.25;;;5.00;77.69
76434;BME280;65265;53.200;6.080;2023-02-01T21:56:06;101765.09;;;4.96;78.03
76434;BME280;65265;53.200;6.080;2023-02-01T22:00:57;101769.19;;;4.94;78.59
76434;BME280;65265;53.200;6.080;2023-02-01T22:05:49;101776.78;;;4.94;78.26
76434;BME280;65265;53.200;6.080;2023-02-01T22:10:43;101786.28;;;4.96;78.16
76434;BME280;65265;53.200;6.080;2023-02-01T22:15:35;101788.56;;;4.93;78.38
76434;BME280;65265;53.200;6.080;2023-02-01T22:20:28;101797.34;;;4.87;78.84
76434;BME280;65265;53.200;6.080;2023-02-01T22:25:21;101805.91;;;4.77;79.31
76434;BME280;65265;53.200;6.080;2023-02-01T22:30:15;101802.41;;;4.65;79.65
76434;BME280;65265;53.200;6.080;2023-02-01T22:35:08;101793.09;;;4.55;80.81
76434;BME280;65265;53.200;6.080;2023-02-01T22:40:01;101782.09;;;4.44;81.33
76434;BME280;65265;53.200;6.080;2023-02-01T22:44:53;101808.06;;;4.52;82.34
76434;BME280;65265;53.200;6.080;2023-02-01T22:49:47;101794.91;;;4.46;83.22
76434;BME280;65265;53.200;6.080;2023-02-01T22:54:48;101812.72;;;4.57;83.95
76434;BME280;65265;53.200;6.080;2023-02-01T22:59:40;101813.91;;;4.51;83.61
76434;BME280;65265;53.200;6.080;2023-02-01T23:04:33;101812.88;;;4.49;84.90
76434;BME280;65265;53.200;6.080;2023-02-01T23:09:29;101821.97;;;4.57;85.13
76434;BME280;65265;53.200;6.080;2023-02-01T23:14:21;101820.91;;;4.64;85.76
76434;BME280;65265;53.200;6.080;2023-02-01T23:19:13;101818.66;;;4.57;86.00
76434;BME280;65265;53.200;6.080;2023-02-01T23:24:05;101831.06;;;4.64;86.29
76434;BME280;65265;53.200;6.080;2023-02-01T23:29:02;101827.13;;;4.68;86.64
76434;BME280;65265;53.200;6.080;2023-02-01T23:33:54;101830.06;;;4.63;86.85
76434;BME280;65265;53.200;6.080;2023-02-01T23:38:48;101838.69;;;4.76;88.00
76434;BME280;65265;53.200;6.080;2023-02-01T23:43:41;101840.19;;;4.84;88.39
76434;BME280;65265;53.200;6.080;2023-02-01T23:48:53;101842.31;;;4.89;88.77
76434;BME280;65265;53.200;6.080;2023-02-01T23:53:44;101834.50;;;4.86;89.23
76434;BME280;65265;53.200;6.080;2023-02-01T23:58:36;101844.22;;;4.92;89.65
